createdAt,value
2019-02-05T00:01:22.578Z,27.73
2019-02-05T00:02:26.893Z,30.95
2019-02-05T00:03:31.037Z,32.25
2019-02-05T00:04:35.245Z,28.30
2019-02-05T00:05:39.544Z,31.10
2019-02-05T00:06:44.223Z,30.15
2019-02-05T00:07:48.440Z,29.15
2019-02-05T00:08:52.679Z,29.02
2019-02-05T00:09:56.941Z,30.30
2019-02-05T00:11:01.219Z,28.87
2019-02-05T00:12:05.741Z,27.45
2019-02-05T00:13:10.016Z,24.12
2019-02-05T00:14:14.364Z,27.13
2019-02-05T00:15:18.810Z,28.62
2019-02-05T00:16:23.498Z,24.52
2019-02-05T00:17:27.747Z,27.82
2019-02-05T00:18:32.075Z,28.10
2019-02-05T00:19:36.287Z,29.92
2019-02-05T00:20:40.790Z,28.62
2019-02-05T00:21:45.047Z,26.02
2019-02-05T00:22:49.343Z,22.22
2019-02-05T00:23:53.501Z,22.73
2019-02-05T00:24:57.892Z,30.10
2019-02-05T00:26:06.266Z,24.80
2019-02-05T00:27:08.153Z,24.57
2019-02-05T00:28:12.403Z,24.02
2019-02-05T00:29:16.564Z,21.90
2019-02-05T00:30:20.775Z,21.50
2019-02-05T00:31:25.086Z,18.92
2019-02-05T00:32:30.153Z,23.10
2019-02-05T00:33:34.379Z,19.60
2019-02-05T00:34:38.769Z,20.00
2019-02-05T00:35:42.963Z,19.85
2019-02-05T00:36:47.188Z,21.73
2019-02-05T00:37:51.357Z,20.88
2019-02-05T00:38:55.526Z,21.57
2019-02-05T00:39:59.959Z,18.90
2019-02-05T00:41:04.612Z,17.70
2019-02-05T00:42:08.773Z,18.80
2019-02-05T00:43:12.962Z,20.32
2019-02-05T00:44:17.184Z,18.00
2019-02-05T00:45:21.552Z,21.60
2019-02-05T00:46:25.785Z,18.73
2019-02-05T00:47:32.243Z,21.65
2019-02-05T00:48:35.977Z,20.77
2019-02-05T00:49:40.601Z,20.80
2019-02-05T00:50:44.897Z,20.52
2019-02-05T00:51:49.113Z,19.87
2019-02-05T00:52:53.278Z,20.15
2019-02-05T00:53:57.572Z,20.25
2019-02-05T00:55:01.885Z,20.30
2019-02-05T00:56:17.136Z,21.10
2019-02-05T00:57:12.528Z,21.12
2019-02-05T00:58:16.674Z,24.85
2019-02-05T00:59:21.321Z,24.25
2019-02-05T01:00:29.976Z,21.12
2019-02-05T01:01:34.353Z,21.45
2019-02-05T01:02:38.530Z,17.35
2019-02-05T01:03:42.963Z,20.60
2019-02-05T01:04:47.265Z,18.42
2019-02-05T01:05:51.474Z,18.25
2019-02-05T01:06:56.104Z,16.40
2019-02-05T01:08:00.797Z,15.60
2019-02-05T01:09:08.400Z,15.00
2019-02-05T01:10:12.782Z,14.55
2019-02-05T01:11:17.077Z,18.05
2019-02-05T01:12:21.385Z,16.80
2019-02-05T01:13:25.683Z,15.60
2019-02-05T01:14:29.857Z,16.95
2019-02-05T01:15:34.142Z,16.55
2019-02-05T01:16:38.418Z,18.00
2019-02-05T01:17:43.025Z,18.10
2019-02-05T01:18:47.231Z,14.68
2019-02-05T01:19:51.393Z,15.45
2019-02-05T01:20:55.682Z,17.20
2019-02-05T01:21:59.975Z,16.25
2019-02-05T01:23:04.521Z,17.98
2019-02-05T01:24:09.126Z,19.40
2019-02-05T01:25:14.975Z,17.07
2019-02-05T01:26:29.163Z,18.20
2019-02-05T01:27:25.243Z,18.02
2019-02-05T01:28:29.557Z,22.90
2019-02-05T01:29:33.823Z,16.55
2019-02-05T01:30:38.052Z,17.10
2019-02-05T01:31:42.274Z,17.77
2019-02-05T01:32:46.658Z,18.92
2019-02-05T01:33:50.960Z,17.10
2019-02-05T01:34:55.142Z,17.77
2019-02-05T01:35:59.439Z,17.42
2019-02-05T01:37:04.297Z,17.35
2019-02-05T01:38:08.514Z,17.25
2019-02-05T01:39:12.694Z,18.30
2019-02-05T01:40:18.906Z,17.92
2019-02-05T01:41:23.233Z,17.20
2019-02-05T01:42:27.873Z,19.73
2019-02-05T01:43:32.013Z,15.68
2019-02-05T01:44:36.324Z,16.67
2019-02-05T01:45:40.735Z,17.80
2019-02-05T01:46:44.931Z,14.98
2019-02-05T01:47:49.200Z,16.45
2019-02-05T01:48:53.465Z,16.02
2019-02-05T01:49:57.577Z,15.28
2019-02-05T01:51:01.931Z,17.45
2019-02-05T01:52:06.351Z,16.07
2019-02-05T01:53:10.671Z,15.93
2019-02-05T01:54:14.958Z,15.90
2019-02-05T01:55:19.314Z,13.95
2019-02-05T01:56:23.647Z,16.95
2019-02-05T01:57:27.977Z,15.95
2019-02-05T01:58:32.629Z,15.35
2019-02-05T01:59:37.261Z,14.53
2019-02-05T02:00:41.733Z,14.38
2019-02-05T02:01:46.083Z,13.90
2019-02-05T02:02:50.703Z,12.00
2019-02-05T02:03:54.971Z,15.45
2019-02-05T02:04:59.202Z,14.83
2019-02-05T02:06:03.367Z,14.85
2019-02-05T02:07:09.217Z,16.27
2019-02-05T02:08:13.681Z,15.13
2019-02-05T02:09:18.211Z,12.30
2019-02-05T02:10:24.563Z,15.63
2019-02-05T02:11:28.843Z,15.93
2019-02-05T02:12:33.131Z,13.93
2019-02-05T02:13:37.347Z,14.30
2019-02-05T02:14:41.603Z,18.07
2019-02-05T02:15:46.259Z,16.12
2019-02-05T02:16:50.449Z,13.28
2019-02-05T02:17:54.886Z,13.35
2019-02-05T02:18:59.165Z,15.78
2019-02-05T02:20:03.655Z,13.28
2019-02-05T02:21:07.946Z,13.78
2019-02-05T02:22:12.276Z,14.95
2019-02-05T02:23:16.600Z,17.37
2019-02-05T02:24:20.995Z,16.27
2019-02-05T02:25:25.303Z,14.78
2019-02-05T02:26:29.533Z,14.43
2019-02-05T02:27:33.882Z,14.73
2019-02-05T02:28:38.155Z,17.98
2019-02-05T02:29:42.381Z,17.07
2019-02-05T02:30:46.799Z,18.40
2019-02-05T02:31:51.373Z,18.77
2019-02-05T02:32:55.655Z,16.70
2019-02-05T02:33:59.980Z,16.77
2019-02-05T02:35:04.385Z,19.35
2019-02-05T02:36:08.489Z,17.15
2019-02-05T02:37:12.785Z,14.73
2019-02-05T02:38:17.060Z,14.40
2019-02-05T02:39:21.304Z,16.37
2019-02-05T02:40:25.505Z,15.63
2019-02-05T02:41:29.745Z,13.85
2019-02-05T02:42:33.992Z,18.07
2019-02-05T02:43:38.254Z,16.50
2019-02-05T02:44:42.643Z,14.10
2019-02-05T02:45:46.897Z,16.35
2019-02-05T02:46:51.440Z,17.48
2019-02-05T02:47:56.010Z,16.12
2019-02-05T02:49:00.340Z,17.48
2019-02-05T02:50:05.641Z,19.52
2019-02-05T02:51:09.890Z,16.05
2019-02-05T02:52:14.218Z,15.83
2019-02-05T02:53:18.351Z,16.75
2019-02-05T02:54:23.124Z,17.45
2019-02-05T02:55:27.398Z,17.12
2019-02-05T02:56:31.741Z,15.65
2019-02-05T02:57:36.019Z,16.10
2019-02-05T02:58:40.218Z,17.57
2019-02-05T02:59:44.481Z,14.75
2019-02-05T03:00:48.747Z,16.70
2019-02-05T03:01:52.932Z,16.80
2019-02-05T03:02:57.633Z,15.58
2019-02-05T03:04:02.375Z,18.98
2019-02-05T03:05:09.074Z,15.48
2019-02-05T03:06:13.467Z,18.23
2019-02-05T03:07:17.827Z,17.12
2019-02-05T03:08:22.135Z,17.50
2019-02-05T03:09:26.403Z,16.73
2019-02-05T03:10:32.105Z,17.32
2019-02-05T03:11:36.454Z,19.92
2019-02-05T03:12:40.807Z,20.27
2019-02-05T03:13:45.031Z,18.57
2019-02-05T03:14:49.264Z,18.95
2019-02-05T03:15:53.636Z,16.27
2019-02-05T03:16:57.993Z,18.62
2019-02-05T03:18:02.487Z,17.73
2019-02-05T03:19:07.317Z,16.82
2019-02-05T03:20:11.928Z,18.80
2019-02-05T03:21:16.291Z,17.85
2019-02-05T03:22:20.651Z,16.48
2019-02-05T03:23:24.779Z,15.60
2019-02-05T03:24:29.195Z,18.23
2019-02-05T03:25:33.488Z,18.37
2019-02-05T03:26:37.836Z,17.50
2019-02-05T03:27:42.453Z,17.67
2019-02-05T03:28:46.835Z,20.23
2019-02-05T03:29:51.134Z,19.02
2019-02-05T03:30:55.376Z,18.32
2019-02-05T03:31:59.796Z,22.77
2019-02-05T03:33:04.387Z,18.12
2019-02-05T03:34:08.789Z,18.15
2019-02-05T03:35:13.709Z,19.80
2019-02-05T03:36:18.101Z,19.35
2019-02-05T03:37:22.398Z,22.67
2019-02-05T03:38:26.766Z,21.35
2019-02-05T03:39:31.138Z,17.82
2019-02-05T03:41:01.879Z,17.95
2019-02-05T03:42:06.293Z,21.77
2019-02-05T03:43:10.628Z,21.10
2019-02-05T03:44:14.925Z,20.02
2019-02-05T03:45:19.475Z,19.87
2019-02-05T03:46:24.286Z,24.35
2019-02-05T03:47:29.050Z,20.00
2019-02-05T03:48:34.828Z,21.50
2019-02-05T03:49:39.179Z,21.73
2019-02-05T03:50:47.250Z,26.00
2019-02-05T03:52:22.123Z,23.80
2019-02-05T03:53:28.479Z,22.40
2019-02-05T03:55:22.269Z,22.65
2019-02-05T03:57:01.279Z,22.62
2019-02-05T03:58:55.668Z,22.62
2019-02-05T04:00:36.300Z,22.98
2019-02-05T04:02:11.167Z,22.93
2019-02-05T04:03:44.606Z,22.80
2019-02-05T04:05:22.931Z,24.25
2019-02-05T04:06:55.344Z,22.73
2019-02-05T04:08:37.931Z,19.67
2019-02-05T04:10:17.351Z,22.52
2019-02-05T04:11:56.079Z,25.45
2019-02-05T04:13:50.821Z,20.88
2019-02-05T04:15:21.115Z,25.80
2019-02-05T04:17:11.023Z,23.02
2019-02-05T04:18:37.423Z,23.05
2019-02-05T04:20:29.090Z,23.83
2019-02-05T04:22:09.412Z,22.40
2019-02-05T04:23:55.552Z,26.20
2019-02-05T04:25:33.030Z,22.22
2019-02-05T04:26:51.558Z,23.47
2019-02-05T04:28:15.359Z,25.90
2019-02-05T04:30:24.980Z,22.65
2019-02-05T04:31:44.089Z,26.37
2019-02-05T04:33:24.415Z,23.67
2019-02-05T04:35:12.835Z,23.30
2019-02-05T04:36:57.540Z,26.15
2019-02-05T04:38:38.605Z,26.40
2019-02-05T04:40:29.985Z,26.55
2019-02-05T04:42:18.181Z,26.55
2019-02-05T04:43:49.393Z,28.17
2019-02-05T04:45:34.048Z,27.22
2019-02-05T04:47:06.789Z,31.23
2019-02-05T04:48:46.633Z,31.02
2019-02-05T04:50:19.508Z,31.27
2019-02-05T04:52:08.423Z,30.68
2019-02-05T04:53:39.049Z,29.82
2019-02-05T04:55:14.927Z,28.85
2019-02-05T04:56:58.441Z,30.10
2019-02-05T04:58:46.751Z,32.80
2019-02-05T05:00:37.987Z,26.65
2019-02-05T05:02:17.850Z,28.62
2019-02-05T05:03:45.299Z,29.95
2019-02-05T05:05:17.658Z,31.37
2019-02-05T05:06:58.905Z,32.38
2019-02-05T05:08:53.406Z,31.85
2019-02-05T05:10:01.312Z,29.32
2019-02-05T05:11:05.585Z,27.82
2019-02-05T05:12:10.280Z,29.57
2019-02-05T05:13:14.836Z,32.55
2019-02-05T05:14:18.996Z,35.50
2019-02-05T05:15:23.284Z,34.70
2019-02-05T05:16:27.420Z,33.40
2019-02-05T05:17:31.806Z,37.35
2019-02-05T05:18:36.075Z,39.30
2019-02-05T05:19:40.414Z,36.20
2019-02-05T05:20:45.110Z,37.58
2019-02-05T05:21:49.495Z,38.08
2019-02-05T05:22:54.006Z,34.65
2019-02-05T05:23:58.575Z,35.68
2019-02-05T05:25:03.224Z,35.52
2019-02-05T05:26:07.576Z,34.45
2019-02-05T05:27:14.207Z,35.88
2019-02-05T05:28:18.655Z,34.50
2019-02-05T05:29:23.263Z,35.15
2019-02-05T05:30:27.652Z,37.20
2019-02-05T05:31:32.000Z,36.08
2019-02-05T05:32:36.252Z,34.27
2019-02-05T05:33:40.480Z,35.78
2019-02-05T05:34:44.672Z,42.93
2019-02-05T05:35:49.014Z,36.88
2019-02-05T05:36:51.923Z,41.85
2019-02-05T05:37:56.186Z,37.33
2019-02-05T05:39:00.548Z,34.33
2019-02-05T05:40:05.839Z,40.00
2019-02-05T05:41:10.146Z,36.88
2019-02-05T05:42:14.602Z,35.50
2019-02-05T05:43:19.387Z,37.58
2019-02-05T05:44:23.778Z,34.18
2019-02-05T05:45:28.045Z,37.98
2019-02-05T05:46:32.300Z,34.23
2019-02-05T05:47:36.563Z,34.05
2019-02-05T05:48:40.831Z,37.85
2019-02-05T05:49:45.111Z,38.55
2019-02-05T05:50:49.478Z,38.48
2019-02-05T05:51:54.069Z,37.83
2019-02-05T05:52:58.297Z,35.15
2019-02-05T05:54:02.650Z,37.53
2019-02-05T05:55:07.475Z,36.45
2019-02-05T05:56:11.832Z,36.03
2019-02-05T05:57:18.670Z,38.83
2019-02-05T05:58:23.149Z,37.30
2019-02-05T05:59:27.918Z,39.90
2019-02-05T06:00:32.307Z,37.98
2019-02-05T06:01:36.540Z,38.58
2019-02-05T06:02:41.143Z,36.75
2019-02-05T06:03:45.345Z,38.30
2019-02-05T06:04:49.714Z,36.98
2019-02-05T06:05:54.112Z,39.00
2019-02-05T06:06:58.533Z,40.17
2019-02-05T06:08:02.912Z,38.20
2019-02-05T06:09:08.965Z,39.75
2019-02-05T06:10:14.061Z,35.30
2019-02-05T06:11:18.344Z,36.98
2019-02-05T06:12:22.596Z,43.25
2019-02-05T06:13:27.098Z,42.75
2019-02-05T06:14:32.080Z,37.42
2019-02-05T06:15:36.402Z,39.27
2019-02-05T06:16:40.695Z,41.95
2019-02-05T06:17:44.854Z,38.40
2019-02-05T06:18:49.223Z,38.55
2019-02-05T06:19:53.544Z,43.20
2019-02-05T06:20:57.799Z,39.05
2019-02-05T06:22:02.061Z,39.38
2019-02-05T06:23:06.427Z,36.55
2019-02-05T06:24:10.813Z,41.02
2019-02-05T06:25:15.452Z,42.88
2019-02-05T06:26:20.277Z,42.43
2019-02-05T06:27:24.739Z,48.55
2019-02-05T06:28:34.645Z,42.58
2019-02-05T06:29:35.038Z,42.13
2019-02-05T06:30:39.958Z,44.15
2019-02-05T06:31:44.297Z,39.05
2019-02-05T06:32:48.585Z,39.10
2019-02-05T06:33:52.986Z,41.65
2019-02-05T06:34:57.295Z,39.27
2019-02-05T06:36:01.488Z,39.70
2019-02-05T06:37:05.720Z,41.80
2019-02-05T06:38:10.087Z,39.63
2019-02-05T06:39:14.348Z,44.13
2019-02-05T06:40:20.029Z,37.98
2019-02-05T06:41:24.415Z,44.38
2019-02-05T06:42:28.781Z,41.92
2019-02-05T06:43:33.119Z,38.63
2019-02-05T06:44:37.372Z,43.35
2019-02-05T06:46:01.003Z,39.80
2019-02-05T06:47:05.265Z,38.38
2019-02-05T06:48:09.543Z,44.40
2019-02-05T06:49:13.935Z,51.53
2019-02-05T06:50:18.772Z,40.08
2019-02-05T06:51:23.213Z,42.62
2019-02-05T06:52:27.520Z,41.42
2019-02-05T06:53:31.875Z,39.20
2019-02-05T06:54:36.139Z,37.50
2019-02-05T06:55:40.380Z,40.60
2019-02-05T06:56:44.551Z,41.58
2019-02-05T06:57:48.739Z,41.50
2019-02-05T06:58:53.066Z,39.73
2019-02-05T06:59:57.601Z,43.40
2019-02-05T07:01:01.891Z,41.37
2019-02-05T07:02:08.220Z,42.75
2019-02-05T07:03:12.569Z,39.18
2019-02-05T07:04:16.811Z,37.48
2019-02-05T07:05:21.289Z,38.70
2019-02-05T07:06:25.673Z,43.13
2019-02-05T07:07:29.951Z,44.60
2019-02-05T07:08:34.488Z,40.25
2019-02-05T07:09:38.889Z,39.10
2019-02-05T07:10:43.239Z,41.68
2019-02-05T07:11:47.511Z,35.70
2019-02-05T07:12:51.864Z,39.53
2019-02-05T07:13:58.202Z,41.48
2019-02-05T07:15:02.153Z,39.15
2019-02-05T07:16:06.468Z,39.48
2019-02-05T07:17:10.696Z,35.88
2019-02-05T07:18:15.008Z,39.80
2019-02-05T07:19:19.251Z,40.10
2019-02-05T07:20:24.102Z,40.15
2019-02-05T07:21:28.814Z,36.00
2019-02-05T07:22:33.065Z,37.42
2019-02-05T07:23:37.391Z,44.08
2019-02-05T07:24:41.743Z,43.13
2019-02-05T07:25:46.026Z,40.78
2019-02-05T07:26:50.417Z,40.88
2019-02-05T07:27:54.640Z,40.40
2019-02-05T07:29:02.057Z,40.25
2019-02-05T07:30:06.837Z,41.02
2019-02-05T07:31:11.183Z,39.27
2019-02-05T07:32:15.436Z,42.73
2019-02-05T07:33:19.813Z,41.15
2019-02-05T07:34:24.215Z,38.98
2019-02-05T07:35:28.581Z,38.75
2019-02-05T07:36:33.328Z,37.38
2019-02-05T07:37:37.612Z,41.02
2019-02-05T07:38:41.860Z,42.70
2019-02-05T07:39:46.097Z,42.40
2019-02-05T07:40:50.464Z,40.28
2019-02-05T07:41:54.840Z,44.63
2019-02-05T07:42:59.224Z,40.52
2019-02-05T07:44:03.604Z,43.50
2019-02-05T07:45:10.527Z,35.95
2019-02-05T07:46:14.935Z,38.45
2019-02-05T07:47:19.260Z,39.48
2019-02-05T07:48:23.573Z,39.70
2019-02-05T07:49:27.883Z,37.80
2019-02-05T07:50:32.614Z,39.10
2019-02-05T07:51:36.892Z,35.83
2019-02-05T07:52:41.284Z,36.65
2019-02-05T07:53:45.586Z,36.77
2019-02-05T07:54:49.831Z,38.00
2019-02-05T07:55:54.139Z,36.83
2019-02-05T07:56:58.448Z,36.63
2019-02-05T07:58:02.751Z,40.35
2019-02-05T07:59:10.427Z,37.20
2019-02-05T08:00:18.880Z,38.10
2019-02-05T08:01:23.287Z,33.33
2019-02-05T08:02:27.530Z,34.92
2019-02-05T08:03:31.843Z,36.65
2019-02-05T08:04:36.227Z,37.83
2019-02-05T08:05:40.936Z,39.85
2019-02-05T08:06:45.572Z,38.58
2019-02-05T08:07:50.740Z,37.90
2019-02-05T08:08:55.008Z,37.03
2019-02-05T08:09:59.375Z,39.95
2019-02-05T08:11:04.975Z,40.67
2019-02-05T08:12:09.454Z,37.55
2019-02-05T08:13:13.766Z,33.73
2019-02-05T08:14:18.205Z,35.90
2019-02-05T08:15:25.807Z,37.88
2019-02-05T08:16:30.181Z,35.40
2019-02-05T08:17:34.453Z,36.83
2019-02-05T08:18:38.867Z,38.70
2019-02-05T08:19:43.355Z,39.15
2019-02-05T08:20:47.869Z,34.67
2019-02-05T08:21:52.325Z,39.08
2019-02-05T08:22:56.567Z,39.03
2019-02-05T08:24:00.915Z,33.25
2019-02-05T08:25:06.313Z,34.53
2019-02-05T08:26:10.696Z,35.70
2019-02-05T08:27:14.947Z,37.67
2019-02-05T08:28:19.363Z,35.63
2019-02-05T08:29:24.068Z,35.58
2019-02-05T08:30:40.109Z,31.82
2019-02-05T08:31:44.371Z,37.85
2019-02-05T08:32:48.734Z,40.50
2019-02-05T08:33:53.098Z,36.03
2019-02-05T08:34:57.261Z,31.23
2019-02-05T08:36:01.443Z,36.40
2019-02-05T08:37:05.871Z,37.45
2019-02-05T08:38:10.453Z,34.73
2019-02-05T08:39:17.810Z,33.20
2019-02-05T08:40:21.083Z,33.73
2019-02-05T08:41:25.493Z,35.95
2019-02-05T08:42:29.815Z,32.45
2019-02-05T08:43:34.064Z,34.83
2019-02-05T08:44:38.449Z,28.32
2019-02-05T08:45:42.828Z,33.20
2019-02-05T08:46:47.559Z,33.38
2019-02-05T08:47:52.025Z,37.67
2019-02-05T08:48:56.420Z,27.42
2019-02-05T08:50:01.099Z,28.70
2019-02-05T08:51:05.498Z,31.33
2019-02-05T08:52:09.851Z,31.50
2019-02-05T08:53:14.582Z,33.85
2019-02-05T08:54:18.977Z,30.30
2019-02-05T08:55:23.331Z,31.75
2019-02-05T08:56:27.815Z,28.67
2019-02-05T08:57:32.181Z,30.88
2019-02-05T08:58:36.376Z,32.08
2019-02-05T08:59:40.628Z,33.42
2019-02-05T09:00:44.985Z,29.95
2019-02-05T09:01:49.315Z,31.48
2019-02-05T09:02:53.744Z,36.15
2019-02-05T09:03:57.964Z,28.77
2019-02-05T09:05:02.218Z,31.82
2019-02-05T09:06:06.369Z,28.00
2019-02-05T09:07:10.971Z,31.17
2019-02-05T09:08:15.480Z,29.63
2019-02-05T09:09:19.902Z,29.57
2019-02-05T09:10:32.093Z,30.70
2019-02-05T09:11:36.346Z,32.60
2019-02-05T09:12:40.727Z,27.00
2019-02-05T09:13:44.947Z,28.65
2019-02-05T09:14:49.205Z,29.25
2019-02-05T09:15:53.548Z,28.92
2019-02-05T09:16:57.813Z,25.60
2019-02-05T09:18:02.555Z,29.77
2019-02-05T09:19:06.812Z,25.80
2019-02-05T09:20:12.805Z,28.50
2019-02-05T09:21:17.063Z,26.45
2019-02-05T09:22:21.349Z,25.82
2019-02-05T09:23:25.765Z,30.88
2019-02-05T09:24:30.282Z,26.87
2019-02-05T09:25:34.855Z,24.30
2019-02-05T09:26:39.253Z,27.02
2019-02-05T09:27:43.928Z,29.67
2019-02-05T09:28:48.187Z,27.55
2019-02-05T09:29:52.469Z,27.30
2019-02-05T09:30:56.834Z,29.87
2019-02-05T09:32:01.172Z,31.07
2019-02-05T09:33:08.785Z,27.42
2019-02-05T09:34:13.071Z,33.80
2019-02-05T09:35:17.295Z,30.48
2019-02-05T09:36:21.669Z,32.23
2019-02-05T09:37:25.951Z,29.82
2019-02-05T09:38:30.287Z,38.08
2019-02-05T09:39:34.964Z,29.82
2019-02-05T09:40:39.533Z,26.80
2019-02-05T09:41:43.851Z,27.67
2019-02-05T09:42:48.287Z,34.13
2019-02-05T09:43:52.521Z,28.60
2019-02-05T09:44:56.877Z,31.82
2019-02-05T09:46:01.170Z,30.60
2019-02-05T09:47:05.390Z,31.15
2019-02-05T09:48:10.227Z,32.30
2019-02-05T09:49:14.519Z,32.85
2019-02-05T09:50:18.915Z,33.95
2019-02-05T09:51:23.171Z,30.50
2019-02-05T09:52:27.887Z,33.15
2019-02-05T09:53:32.261Z,34.20
2019-02-05T09:54:36.779Z,35.03
2019-02-05T09:55:41.154Z,31.02
2019-02-05T09:56:45.505Z,29.65
2019-02-05T09:57:49.758Z,34.10
2019-02-05T09:58:54.063Z,35.20
2019-02-05T09:59:58.410Z,30.20
2019-02-05T10:01:02.853Z,37.42
2019-02-05T10:02:07.281Z,35.60
2019-02-05T10:03:11.423Z,45.67
2019-02-05T10:04:15.651Z,34.63
2019-02-05T10:05:20.680Z,40.12
2019-02-05T10:06:25.033Z,34.92
2019-02-05T10:07:29.462Z,40.08
2019-02-05T10:08:34.162Z,45.05
2019-02-05T10:09:38.685Z,39.33
2019-02-05T10:10:42.958Z,38.50
2019-02-05T10:11:47.611Z,41.23
2019-02-05T10:12:52.346Z,40.45
2019-02-05T10:13:56.777Z,37.23
2019-02-05T10:15:01.015Z,43.25
2019-02-05T10:16:06.023Z,37.78
2019-02-05T10:17:10.253Z,39.38
2019-02-05T10:18:14.599Z,42.50
2019-02-05T10:19:18.865Z,41.77
2019-02-05T10:20:24.272Z,44.05
2019-02-05T10:21:28.741Z,44.60
2019-02-05T10:22:33.160Z,42.73
2019-02-05T10:23:37.649Z,39.88
2019-02-05T10:24:42.315Z,41.42
2019-02-05T10:25:46.686Z,43.50
2019-02-05T10:26:51.113Z,41.15
2019-02-05T10:27:55.423Z,43.45
2019-02-05T10:28:59.765Z,51.75
2019-02-05T10:30:05.203Z,41.28
2019-02-05T10:31:09.586Z,45.15
2019-02-05T10:32:15.142Z,47.30
2019-02-05T10:33:19.503Z,39.67
2019-02-05T10:34:33.825Z,40.40
2019-02-05T10:35:29.739Z,40.08
2019-02-05T10:36:34.064Z,43.98
2019-02-05T10:37:38.496Z,40.08
2019-02-05T10:38:43.077Z,44.10
2019-02-05T10:39:47.426Z,43.78
2019-02-05T10:40:51.945Z,41.33
2019-02-05T10:41:56.615Z,43.95
2019-02-05T10:43:00.952Z,42.27
2019-02-05T10:44:06.088Z,42.70
2019-02-05T10:45:11.556Z,38.88
2019-02-05T10:46:15.786Z,41.77
2019-02-05T10:47:20.007Z,41.45
2019-02-05T10:48:24.245Z,45.35
2019-02-05T10:49:28.526Z,45.78
2019-02-05T10:50:32.822Z,43.63
2019-02-05T10:51:37.242Z,49.40
2019-02-05T10:52:41.622Z,45.10
2019-02-05T10:53:45.881Z,48.40
2019-02-05T10:54:50.257Z,48.78
2019-02-05T10:55:54.988Z,48.25
2019-02-05T10:56:59.363Z,45.05
2019-02-05T10:58:03.723Z,43.38
2019-02-05T10:59:08.081Z,50.12
2019-02-05T11:00:18.061Z,45.43
2019-02-05T11:01:22.378Z,43.02
2019-02-05T11:02:26.615Z,43.98
2019-02-05T11:03:30.843Z,47.08
2019-02-05T11:04:35.107Z,49.18
2019-02-05T11:05:39.905Z,47.65
2019-02-05T11:06:44.284Z,41.25
2019-02-05T11:07:48.595Z,43.63
2019-02-05T11:08:52.942Z,51.37
2019-02-05T11:09:57.309Z,55.65
2019-02-05T11:11:01.814Z,52.20
2019-02-05T11:12:06.592Z,44.63
2019-02-05T11:13:10.903Z,43.63
2019-02-05T11:14:15.229Z,43.02
2019-02-05T11:15:22.052Z,47.40
2019-02-05T11:16:26.430Z,44.35
2019-02-05T11:17:30.779Z,42.70
2019-02-05T11:18:35.157Z,49.85
2019-02-05T11:19:39.431Z,46.30
2019-02-05T11:20:43.678Z,47.60
2019-02-05T11:21:48.039Z,42.53
2019-02-05T11:22:52.253Z,50.50
2019-02-05T11:23:56.615Z,40.50
2019-02-05T11:25:01.038Z,41.05
2019-02-05T11:26:05.791Z,39.27
2019-02-05T11:27:10.437Z,41.75
2019-02-05T11:28:14.824Z,43.65
2019-02-05T11:29:19.037Z,48.15
2019-02-05T11:30:31.711Z,48.42
2019-02-05T11:31:36.087Z,43.28
2019-02-05T11:32:40.574Z,46.73
2019-02-05T11:33:44.907Z,42.78
2019-02-05T11:34:49.156Z,47.00
2019-02-05T11:35:53.415Z,47.80
2019-02-05T11:36:57.777Z,42.85
2019-02-05T11:38:02.243Z,48.33
2019-02-05T11:39:13.449Z,45.23
2019-02-05T11:40:23.248Z,36.00
2019-02-05T11:41:27.518Z,40.67
2019-02-05T11:42:31.911Z,46.00
2019-02-05T11:43:36.186Z,42.03
2019-02-05T11:44:40.578Z,37.42
2019-02-05T11:45:46.407Z,40.52
2019-02-05T11:46:50.933Z,45.70
2019-02-05T11:47:55.631Z,35.83
2019-02-05T11:48:59.930Z,45.20
2019-02-05T11:50:05.653Z,41.85
2019-02-05T11:51:09.891Z,43.28
2019-02-05T11:52:14.149Z,39.58
2019-02-05T11:53:18.321Z,41.83
2019-02-05T11:54:22.705Z,44.65
2019-02-05T11:55:28.158Z,45.73
2019-02-05T11:56:32.512Z,43.00
2019-02-05T11:57:36.820Z,46.10
2019-02-05T11:58:41.123Z,46.63
2019-02-05T11:59:45.367Z,45.08
2019-02-05T12:01:08.816Z,44.88
2019-02-05T12:02:13.102Z,46.37
2019-02-05T12:03:17.608Z,47.93
2019-02-05T12:04:21.960Z,42.67
2019-02-05T12:05:26.377Z,41.10
2019-02-05T12:06:31.130Z,39.63
2019-02-05T12:07:35.351Z,44.08
2019-02-05T12:08:39.778Z,44.05
2019-02-05T12:09:44.274Z,53.70
2019-02-05T12:10:48.555Z,50.65
2019-02-05T12:11:52.871Z,49.95
2019-02-05T12:12:57.290Z,43.28
2019-02-05T12:14:01.566Z,49.88
2019-02-05T12:15:07.487Z,47.23
2019-02-05T12:16:11.827Z,44.33
2019-02-05T12:17:16.241Z,49.15
2019-02-05T12:18:20.630Z,48.42
2019-02-05T12:19:24.989Z,48.25
2019-02-05T12:20:29.535Z,51.37
2019-02-05T12:21:34.291Z,41.42
2019-02-05T12:22:38.656Z,45.95
2019-02-05T12:23:42.995Z,48.15
2019-02-05T12:24:47.301Z,48.38
2019-02-05T12:25:51.733Z,43.80
2019-02-05T12:26:56.187Z,48.38
2019-02-05T12:28:00.371Z,48.90
2019-02-05T12:29:04.498Z,48.10
2019-02-05T12:30:13.041Z,53.68
2019-02-05T12:31:17.272Z,43.52
2019-02-05T12:32:21.765Z,45.15
2019-02-05T12:33:26.083Z,53.05
2019-02-05T12:34:30.403Z,51.55
2019-02-05T12:35:34.589Z,44.80
2019-02-05T12:36:39.559Z,49.20
2019-02-05T12:37:43.768Z,51.73
2019-02-05T12:38:48.053Z,45.80
2019-02-05T12:39:52.497Z,47.35
2019-02-05T12:40:56.724Z,46.73
2019-02-05T12:42:01.115Z,48.25
2019-02-05T12:43:06.123Z,48.10
2019-02-05T12:44:10.638Z,49.18
2019-02-05T12:45:18.116Z,49.58
2019-02-05T12:46:22.708Z,51.50
2019-02-05T12:47:26.965Z,45.00
2019-02-05T12:48:31.322Z,45.92
2019-02-05T12:49:35.852Z,55.58
2019-02-05T12:50:40.355Z,49.50
2019-02-05T12:51:44.809Z,50.43
2019-02-05T12:52:49.345Z,52.55
2019-02-05T12:53:53.661Z,48.15
2019-02-05T12:55:12.177Z,49.03
2019-02-05T12:56:04.335Z,48.17
2019-02-05T12:57:08.588Z,48.48
2019-02-05T12:58:12.850Z,52.10
2019-02-05T12:59:17.014Z,54.88
2019-02-05T13:00:33.074Z,43.30
2019-02-05T13:01:37.287Z,51.48
2019-02-05T13:02:41.459Z,62.10
2019-02-05T13:03:45.751Z,48.05
2019-02-05T13:04:50.378Z,57.03
2019-02-05T13:05:54.978Z,49.63
2019-02-05T13:06:59.168Z,47.65
2019-02-05T13:08:05.494Z,53.83
2019-02-05T13:09:10.457Z,52.67
2019-02-05T13:10:16.866Z,46.28
2019-02-05T13:11:21.048Z,50.80
2019-02-05T13:12:25.428Z,51.92
2019-02-05T13:13:30.099Z,51.05
2019-02-05T13:14:34.782Z,49.03
2019-02-05T13:15:39.214Z,54.77
2019-02-05T13:16:43.455Z,57.23
2019-02-05T13:17:47.656Z,52.93
2019-02-05T13:18:52.070Z,51.98
2019-02-05T13:19:56.474Z,52.30
2019-02-05T13:21:00.685Z,56.08
2019-02-05T13:22:05.234Z,55.85
2019-02-05T13:23:10.207Z,53.33
2019-02-05T13:24:16.550Z,52.35
2019-02-05T13:25:22.415Z,56.55
2019-02-05T13:26:26.784Z,51.42
2019-02-05T13:27:31.035Z,57.58
2019-02-05T13:28:35.221Z,48.90
2019-02-05T13:29:39.651Z,48.05
2019-02-05T13:30:44.341Z,48.87
2019-02-05T13:31:49.152Z,45.70
2019-02-05T13:32:53.397Z,49.13
2019-02-05T13:33:57.542Z,53.98
2019-02-05T13:35:01.849Z,54.88
2019-02-05T13:36:10.415Z,48.50
2019-02-05T13:37:14.699Z,58.68
2019-02-05T13:38:19.100Z,52.98
2019-02-05T13:39:23.505Z,58.40
2019-02-05T13:40:28.366Z,52.48
2019-02-05T13:41:32.751Z,55.55
2019-02-05T13:42:37.148Z,51.95
2019-02-05T13:43:41.395Z,48.05
2019-02-05T13:44:45.632Z,58.02
2019-02-05T13:45:50.106Z,63.90
2019-02-05T13:46:54.437Z,58.92
2019-02-05T13:47:58.804Z,51.25
2019-02-05T13:49:03.664Z,51.80
2019-02-05T13:50:14.495Z,46.60
2019-02-05T13:51:19.153Z,51.40
2019-02-05T13:52:23.399Z,60.23
2019-02-05T13:53:27.696Z,61.77
2019-02-05T13:54:31.976Z,60.60
2019-02-05T13:55:38.819Z,57.40
2019-02-05T13:56:43.147Z,56.50
2019-02-05T13:57:47.489Z,51.05
2019-02-05T13:58:51.745Z,53.30
2019-02-05T13:59:55.919Z,57.33
2019-02-05T14:01:00.131Z,60.65
2019-02-05T14:02:05.136Z,55.43
2019-02-05T14:03:10.626Z,50.30
2019-02-05T14:04:14.800Z,56.02
2019-02-05T14:05:19.014Z,53.60
2019-02-05T14:06:23.757Z,53.98
2019-02-05T14:07:28.404Z,58.85
2019-02-05T14:08:32.659Z,55.05
2019-02-05T14:09:36.824Z,63.08
2019-02-05T14:10:41.862Z,59.93
2019-02-05T14:11:46.037Z,55.10
2019-02-05T14:12:50.287Z,57.05
2019-02-05T14:13:54.645Z,56.73
2019-02-05T14:14:58.977Z,47.53
2019-02-05T14:16:03.189Z,56.15
2019-02-05T14:17:07.405Z,62.08
2019-02-05T14:18:11.975Z,54.93
2019-02-05T14:19:16.346Z,51.83
2019-02-05T14:20:20.697Z,57.95
2019-02-05T14:21:24.870Z,62.75